sensor_id;sensor_type;location;lat;lon;timestamp;temperature;humidity
72940;DHT22;61094;51.154;13.570;2022-08-25T00:01:46;19.60;69.00
72940;DHT22;61094;51.154;13.570;2022-08-25T00:04:15;19.60;68.90
72940;DHT22;61094;51.154;13.570;2022-08-25T00:06:42;19.60;68.70
72940;DHT22;61094;51.154;13.570;2022-08-25T00:09:13;19.60;68.80
72940;DHT22;61094;51.154;13.570;2022-08-25T00:11:41;19.60;68.50
72940;DHT22;61094;51.154;13.570;2022-08-25T00:14:10;19.50;68.90
72940;DHT22;61094;51.154;13.570;2022-08-25T00:16:37;19.50;68.50
72940;DHT22;61094;51.154;13.570;2022-08-25T00:19:07;19.50;68.60
72940;DHT22;61094;51.154;13.570;2022-08-25T00:21:34;19.50;69.00
72940;DHT22;61094;51.154;13.570;2022-08-25T00:24:02;19.50;68.50
72940;DHT22;61094;51.154;13.570;2022-08-25T00:26:30;19.50;70.40
72940;DHT22;61094;51.154;13.570;2022-08-25T00:28:57;19.40;68.90
72940;DHT22;61094;51.154;13.570;2022-08-25T00:31:23;19.40;68.70
72940;DHT22;61094;51.154;13.570;2022-08-25T00:33:51;19.30;69.50
72940;DHT22;61094;51.154;13.570;2022-08-25T00:36:19;19.30;68.70
72940;DHT22;61094;51.154;13.570;2022-08-25T00:38:47;19.30;70.00
72940;DHT22;61094;51.154;13.570;2022-08-25T00:41:17;19.30;68.70
72940;DHT22;61094;51.154;13.570;2022-08-25T00:43:49;19.30;69.10
72940;DHT22;61094;51.154;13.570;2022-08-25T00:46:19;19.30;68.90
72940;DHT22;61094;51.154;13.570;2022-08-25T00:48:49;19.20;69.60
72940;DHT22;61094;51.154;13.570;2022-08-25T00:51:20;19.20;69.10
72940;DHT22;61094;51.154;13.570;2022-08-25T00:53:49;19.20;69.50
72940;DHT22;61094;51.154;13.570;2022-08-25T00:56:16;19.10;70.20
72940;DHT22;61094;51.154;13.570;2022-08-25T00:58:44;19.10;70.60
72940;DHT22;61094;51.154;13.570;2022-08-25T01:01:11;19.10;70.00
72940;DHT22;61094;51.154;13.570;2022-08-25T01:03:38;19.10;69.20
72940;DHT22;61094;51.154;13.570;2022-08-25T01:06:06;19.00;69.20
72940;DHT22;61094;51.154;13.570;2022-08-25T01:08:34;19.00;70.30
72940;DHT22;61094;51.154;13.570;2022-08-25T01:11:03;19.00;70.00
72940;DHT22;61094;51.154;13.570;2022-08-25T01:13:31;19.00;69.10
72940;DHT22;61094;51.154;13.570;2022-08-25T01:15:59;19.00;72.70
72940;DHT22;61094;51.154;13.570;2022-08-25T01:18:28;19.00;70.30
72940;DHT22;61094;51.154;13.570;2022-08-25T01:20:58;18.90;70.00
72940;DHT22;61094;51.154;13.570;2022-08-25T01:23:25;18.90;69.70
72940;DHT22;61094;51.154;13.570;2022-08-25T01:25:57;18.80;70.30
72940;DHT22;61094;51.154;13.570;2022-08-25T01:28:25;18.80;70.40
72940;DHT22;61094;51.154;13.570;2022-08-25T01:30:52;18.80;70.70
72940;DHT22;61094;51.154;13.570;2022-08-25T01:33:19;18.80;71.00
72940;DHT22;61094;51.154;13.570;2022-08-25T01:35:46;18.80;70.10
72940;DHT22;61094;51.154;13.570;2022-08-25T01:38:15;18.80;70.80
72940;DHT22;61094;51.154;13.570;2022-08-25T01:40:42;18.70;69.90
72940;DHT22;61094;51.154;13.570;2022-08-25T01:43:21;18.70;69.60
72940;DHT22;61094;51.154;13.570;2022-08-25T01:45:51;18.70;70.00
72940;DHT22;61094;51.154;13.570;2022-08-25T01:48:18;18.60;70.80
72940;DHT22;61094;51.154;13.570;2022-08-25T01:50:45;18.60;70.10
72940;DHT22;61094;51.154;13.570;2022-08-25T01:53:17;18.60;69.80
72940;DHT22;61094;51.154;13.570;2022-08-25T01:55:44;18.60;69.70
72940;DHT22;61094;51.154;13.570;2022-08-25T01:58:28;18.60;71.10
72940;DHT22;61094;51.154;13.570;2022-08-25T02:00:59;18.60;70.10
72940;DHT22;61094;51.154;13.570;2022-08-25T02:03:27;18.60;69.80
72940;DHT22;61094;51.154;13.570;2022-08-25T02:05:55;18.60;70.30
72940;DHT22;61094;51.154;13.570;2022-08-25T02:08:24;18.60;70.00
72940;DHT22;61094;51.154;13.570;2022-08-25T02:10:52;18.60;70.10
72940;DHT22;61094;51.154;13.570;2022-08-25T02:16:45;18.60;71.50
72940;DHT22;61094;51.154;13.570;2022-08-25T02:19:13;18.60;70.30
72940;DHT22;61094;51.154;13.570;2022-08-25T02:21:41;18.50;70.10
72940;DHT22;61094;51.154;13.570;2022-08-25T02:24:10;18.50;70.80
72940;DHT22;61094;51.154;13.570;2022-08-25T02:26:37;18.60;71.00
72940;DHT22;61094;51.154;13.570;2022-08-25T02:29:05;18.50;71.90
72940;DHT22;61094;51.154;13.570;2022-08-25T02:31:33;18.50;70.50
72940;DHT22;61094;51.154;13.570;2022-08-25T02:34:00;18.50;70.40
72940;DHT22;61094;51.154;13.570;2022-08-25T02:36:27;18.50;70.00
72940;DHT22;61094;51.154;13.570;2022-08-25T02:38:54;18.50;70.90
72940;DHT22;61094;51.154;13.570;2022-08-25T02:41:23;18.50;71.10
72940;DHT22;61094;51.154;13.570;2022-08-25T02:43:51;18.50;71.80
72940;DHT22;61094;51.154;13.570;2022-08-25T02:46:21;18.40;71.30
72940;DHT22;61094;51.154;13.570;2022-08-25T02:48:49;18.40;71.40
72940;DHT22;61094;51.154;13.570;2022-08-25T02:51:18;18.40;72.30
72940;DHT22;61094;51.154;13.570;2022-08-25T02:53:46;18.40;71.70
72940;DHT22;61094;51.154;13.570;2022-08-25T02:56:15;18.40;70.80
72940;DHT22;61094;51.154;13.570;2022-08-25T02:58:44;18.40;71.00
72940;DHT22;61094;51.154;13.570;2022-08-25T03:01:11;18.40;71.30
72940;DHT22;61094;51.154;13.570;2022-08-25T03:03:38;18.40;71.40
72940;DHT22;61094;51.154;13.570;2022-08-25T03:06:06;18.30;71.30
72940;DHT22;61094;51.154;13.570;2022-08-25T03:08:34;18.30;71.70
72940;DHT22;61094;51.154;13.570;2022-08-25T03:11:00;18.30;71.30
72940;DHT22;61094;51.154;13.570;2022-08-25T03:13:27;18.30;71.80
72940;DHT22;61094;51.154;13.570;2022-08-25T03:15:55;18.30;72.60
72940;DHT22;61094;51.154;13.570;2022-08-25T03:18:22;18.30;72.20
72940;DHT22;61094;51.154;13.570;2022-08-25T03:20:48;18.30;72.00
72940;DHT22;61094;51.154;13.570;2022-08-25T03:23:15;18.30;72.10
72940;DHT22;61094;51.154;13.570;2022-08-25T03:25:42;18.30;71.40
72940;DHT22;61094;51.154;13.570;2022-08-25T03:28:27;18.30;71.80
72940;DHT22;61094;51.154;13.570;2022-08-25T03:30:56;18.30;71.50
72940;DHT22;61094;51.154;13.570;2022-08-25T03:33:24;18.30;71.20
72940;DHT22;61094;51.154;13.570;2022-08-25T03:35:51;18.30;70.90
72940;DHT22;61094;51.154;13.570;2022-08-25T03:38:18;18.30;70.80
72940;DHT22;61094;51.154;13.570;2022-08-25T03:40:44;18.30;70.90
72940;DHT22;61094;51.154;13.570;2022-08-25T03:43:11;18.30;70.80
72940;DHT22;61094;51.154;13.570;2022-08-25T03:45:39;18.30;70.70
72940;DHT22;61094;51.154;13.570;2022-08-25T03:48:07;18.30;70.50
72940;DHT22;61094;51.154;13.570;2022-08-25T03:50:35;18.30;70.60
72940;DHT22;61094;51.154;13.570;2022-08-25T03:53:02;18.30;70.70
72940;DHT22;61094;51.154;13.570;2022-08-25T03:55:28;18.20;70.60
72940;DHT22;61094;51.154;13.570;2022-08-25T03:57:55;18.20;71.30
72940;DHT22;61094;51.154;13.570;2022-08-25T04:00:22;18.20;70.80
72940;DHT22;61094;51.154;13.570;2022-08-25T04:02:49;18.20;71.80
72940;DHT22;61094;51.154;13.570;2022-08-25T04:05:17;18.20;70.90
72940;DHT22;61094;51.154;13.570;2022-08-25T04:07:44;18.20;70.90
72940;DHT22;61094;51.154;13.570;2022-08-25T04:10:11;18.10;71.80
72940;DHT22;61094;51.154;13.570;2022-08-25T04:12:38;18.10;70.90
72940;DHT22;61094;51.154;13.570;2022-08-25T04:15:07;18.10;71.20
72940;DHT22;61094;51.154;13.570;2022-08-25T04:17:37;18.10;70.90
72940;DHT22;61094;51.154;13.570;2022-08-25T04:20:05;18.10;71.80
72940;DHT22;61094;51.154;13.570;2022-08-25T04:22:34;18.00;72.00
72940;DHT22;61094;51.154;13.570;2022-08-25T04:25:01;18.00;71.60
72940;DHT22;61094;51.154;13.570;2022-08-25T04:27:28;18.10;71.70
72940;DHT22;61094;51.154;13.570;2022-08-25T04:29:54;18.10;72.20
72940;DHT22;61094;51.154;13.570;2022-08-25T04:32:21;18.00;72.30
72940;DHT22;61094;51.154;13.570;2022-08-25T04:34:47;17.90;71.80
72940;DHT22;61094;51.154;13.570;2022-08-25T04:37:14;17.90;72.10
72940;DHT22;61094;51.154;13.570;2022-08-25T04:39:42;17.90;72.20
72940;DHT22;61094;51.154;13.570;2022-08-25T04:42:09;17.90;74.30
72940;DHT22;61094;51.154;13.570;2022-08-25T04:44:36;17.90;72.60
72940;DHT22;61094;51.154;13.570;2022-08-25T04:47:03;17.80;72.00
72940;DHT22;61094;51.154;13.570;2022-08-25T04:49:30;17.90;72.30
72940;DHT22;61094;51.154;13.570;2022-08-25T04:51:57;17.90;72.80
72940;DHT22;61094;51.154;13.570;2022-08-25T04:54:23;17.80;73.10
72940;DHT22;61094;51.154;13.570;2022-08-25T04:56:52;17.80;73.00
72940;DHT22;61094;51.154;13.570;2022-08-25T04:59:18;17.90;73.60
72940;DHT22;61094;51.154;13.570;2022-08-25T05:01:45;18.00;74.50
72940;DHT22;61094;51.154;13.570;2022-08-25T05:04:15;18.00;72.90
72940;DHT22;61094;51.154;13.570;2022-08-25T05:06:42;18.00;72.30
72940;DHT22;61094;51.154;13.570;2022-08-25T05:09:09;18.00;72.00
72940;DHT22;61094;51.154;13.570;2022-08-25T05:11:36;18.00;72.90
72940;DHT22;61094;51.154;13.570;2022-08-25T05:14:05;18.00;73.90
72940;DHT22;61094;51.154;13.570;2022-08-25T05:16:36;18.00;74.60
72940;DHT22;61094;51.154;13.570;2022-08-25T05:19:03;18.00;75.00
72940;DHT22;61094;51.154;13.570;2022-08-25T05:21:30;18.10;73.50
72940;DHT22;61094;51.154;13.570;2022-08-25T05:23:59;18.10;73.90
72940;DHT22;61094;51.154;13.570;2022-08-25T05:26:27;18.10;74.90
72940;DHT22;61094;51.154;13.570;2022-08-25T05:28:55;18.20;73.70
72940;DHT22;61094;51.154;13.570;2022-08-25T05:31:25;18.30;74.20
72940;DHT22;61094;51.154;13.570;2022-08-25T05:33:53;18.30;73.40
72940;DHT22;61094;51.154;13.570;2022-08-25T05:36:21;18.30;74.80
72940;DHT22;61094;51.154;13.570;2022-08-25T05:38:48;18.40;74.00
72940;DHT22;61094;51.154;13.570;2022-08-25T05:41:17;18.40;74.30
72940;DHT22;61094;51.154;13.570;2022-08-25T05:43:46;18.50;74.80
72940;DHT22;61094;51.154;13.570;2022-08-25T05:46:17;18.50;73.50
72940;DHT22;61094;51.154;13.570;2022-08-25T05:48:45;18.60;74.50
72940;DHT22;61094;51.154;13.570;2022-08-25T05:51:12;18.70;74.00
72940;DHT22;61094;51.154;13.570;2022-08-25T05:53:41;18.70;73.30
72940;DHT22;61094;51.154;13.570;2022-08-25T05:56:09;18.70;73.60
72940;DHT22;61094;51.154;13.570;2022-08-25T05:58:39;18.70;73.80
72940;DHT22;61094;51.154;13.570;2022-08-25T06:01:08;18.70;74.50
72940;DHT22;61094;51.154;13.570;2022-08-25T06:03:54;18.80;75.90
72940;DHT22;61094;51.154;13.570;2022-08-25T06:06:23;18.90;76.50
72940;DHT22;61094;51.154;13.570;2022-08-25T06:08:50;18.90;75.10
72940;DHT22;61094;51.154;13.570;2022-08-25T06:11:17;18.90;73.80
72940;DHT22;61094;51.154;13.570;2022-08-25T06:13:44;19.00;73.00
72940;DHT22;61094;51.154;13.570;2022-08-25T06:16:11;19.10;73.70
72940;DHT22;61094;51.154;13.570;2022-08-25T06:18:38;19.20;73.10
72940;DHT22;61094;51.154;13.570;2022-08-25T06:21:11;19.30;72.60
72940;DHT22;61094;51.154;13.570;2022-08-25T06:23:44;19.40;73.40
72940;DHT22;61094;51.154;13.570;2022-08-25T06:26:12;19.50;72.70
72940;DHT22;61094;51.154;13.570;2022-08-25T06:28:39;19.70;73.10
72940;DHT22;61094;51.154;13.570;2022-08-25T06:31:06;19.80;73.10
72940;DHT22;61094;51.154;13.570;2022-08-25T06:33:34;19.90;72.80
72940;DHT22;61094;51.154;13.570;2022-08-25T06:36:01;20.00;72.50
72940;DHT22;61094;51.154;13.570;2022-08-25T06:38:29;20.00;72.20
72940;DHT22;61094;51.154;13.570;2022-08-25T06:40:56;20.10;72.80
72940;DHT22;61094;51.154;13.570;2022-08-25T06:43:23;20.30;72.10
72940;DHT22;61094;51.154;13.570;2022-08-25T06:45:50;20.40;71.60
72940;DHT22;61094;51.154;13.570;2022-08-25T06:48:16;20.50;71.30
72940;DHT22;61094;51.154;13.570;2022-08-25T06:50:43;20.50;71.80
72940;DHT22;61094;51.154;13.570;2022-08-25T06:53:10;20.60;72.40
72940;DHT22;61094;51.154;13.570;2022-08-25T06:55:38;20.70;72.20
72940;DHT22;61094;51.154;13.570;2022-08-25T06:58:06;20.70;71.30
72940;DHT22;61094;51.154;13.570;2022-08-25T07:00:34;20.80;71.70
72940;DHT22;61094;51.154;13.570;2022-08-25T07:03:01;20.80;72.30
72940;DHT22;61094;51.154;13.570;2022-08-25T07:05:29;20.90;72.00
72940;DHT22;61094;51.154;13.570;2022-08-25T07:07:56;21.00;71.90
72940;DHT22;61094;51.154;13.570;2022-08-25T07:10:23;21.00;72.50
72940;DHT22;61094;51.154;13.570;2022-08-25T07:12:51;21.10;71.80
72940;DHT22;61094;51.154;13.570;2022-08-25T07:15:18;21.10;72.20
72940;DHT22;61094;51.154;13.570;2022-08-25T07:17:45;21.20;72.20
72940;DHT22;61094;51.154;13.570;2022-08-25T07:20:11;21.30;72.50
72940;DHT22;61094;51.154;13.570;2022-08-25T07:22:38;21.40;73.90
72940;DHT22;61094;51.154;13.570;2022-08-25T07:25:06;21.60;71.30
72940;DHT22;61094;51.154;13.570;2022-08-25T07:27:33;21.80;71.00
72940;DHT22;61094;51.154;13.570;2022-08-25T07:30:01;22.00;71.00
72940;DHT22;61094;51.154;13.570;2022-08-25T07:32:28;22.20;71.00
72940;DHT22;61094;51.154;13.570;2022-08-25T07:34:54;22.40;70.30
72940;DHT22;61094;51.154;13.570;2022-08-25T07:37:39;22.60;70.00
72940;DHT22;61094;51.154;13.570;2022-08-25T07:40:08;22.70;70.30
72940;DHT22;61094;51.154;13.570;2022-08-25T07:42:35;22.90;69.70
72940;DHT22;61094;51.154;13.570;2022-08-25T07:45:05;23.00;69.70
72940;DHT22;61094;51.154;13.570;2022-08-25T07:47:31;23.20;69.80
72940;DHT22;61094;51.154;13.570;2022-08-25T07:49:59;23.30;69.50
72940;DHT22;61094;51.154;13.570;2022-08-25T07:52:25;23.40;69.10
72940;DHT22;61094;51.154;13.570;2022-08-25T07:54:52;23.50;69.10
72940;DHT22;61094;51.154;13.570;2022-08-25T07:57:19;23.60;68.70
72940;DHT22;61094;51.154;13.570;2022-08-25T07:59:49;23.90;68.60
72940;DHT22;61094;51.154;13.570;2022-08-25T08:02:17;24.20;68.30
72940;DHT22;61094;51.154;13.570;2022-08-25T08:07:24;24.60;67.00
72940;DHT22;61094;51.154;13.570;2022-08-25T08:09:51;24.80;67.20
72940;DHT22;61094;51.154;13.570;2022-08-25T08:12:19;25.00;66.80
72940;DHT22;61094;51.154;13.570;2022-08-25T08:14:45;25.20;66.60
72940;DHT22;61094;51.154;13.570;2022-08-25T08:17:13;25.40;66.30
72940;DHT22;61094;51.154;13.570;2022-08-25T08:19:39;25.60;66.80
72940;DHT22;61094;51.154;13.570;2022-08-25T08:22:06;25.70;65.60
72940;DHT22;61094;51.154;13.570;2022-08-25T08:24:36;25.80;65.60
72940;DHT22;61094;51.154;13.570;2022-08-25T08:27:04;25.90;64.70
72940;DHT22;61094;51.154;13.570;2022-08-25T08:29:31;26.00;65.20
72940;DHT22;61094;51.154;13.570;2022-08-25T08:31:58;26.00;65.10
72940;DHT22;61094;51.154;13.570;2022-08-25T08:34:25;26.10;65.20
72940;DHT22;61094;51.154;13.570;2022-08-25T08:36:51;26.10;65.00
72940;DHT22;61094;51.154;13.570;2022-08-25T08:39:18;26.20;65.00
72940;DHT22;61094;51.154;13.570;2022-08-25T08:41:55;26.30;64.90
72940;DHT22;61094;51.154;13.570;2022-08-25T08:44:53;26.40;64.80
72940;DHT22;61094;51.154;13.570;2022-08-25T08:47:27;26.40;64.80
72940;DHT22;61094;51.154;13.570;2022-08-25T08:50:02;26.40;63.70
72940;DHT22;61094;51.154;13.570;2022-08-25T08:52:36;26.40;64.30
72940;DHT22;61094;51.154;13.570;2022-08-25T08:55:10;26.40;64.00
72940;DHT22;61094;51.154;13.570;2022-08-25T08:57:44;26.40;64.40
72940;DHT22;61094;51.154;13.570;2022-08-25T09:00:13;26.40;63.80
72940;DHT22;61094;51.154;13.570;2022-08-25T09:02:45;26.40;63.80
72940;DHT22;61094;51.154;13.570;2022-08-25T09:05:14;26.40;64.00
72940;DHT22;61094;51.154;13.570;2022-08-25T09:07:47;26.30;64.20
72940;DHT22;61094;51.154;13.570;2022-08-25T09:10:15;26.40;64.20
72940;DHT22;61094;51.154;13.570;2022-08-25T09:12:47;26.50;63.50
72940;DHT22;61094;51.154;13.570;2022-08-25T09:15:22;26.70;64.20
72940;DHT22;61094;51.154;13.570;2022-08-25T09:18:17;26.80;63.50
72940;DHT22;61094;51.154;13.570;2022-08-25T09:20:57;27.10;62.80
72940;DHT22;61094;51.154;13.570;2022-08-25T09:23:33;27.20;61.10
72940;DHT22;61094;51.154;13.570;2022-08-25T09:26:13;27.20;60.90
72940;DHT22;61094;51.154;13.570;2022-08-25T09:28:48;27.30;61.70
72940;DHT22;61094;51.154;13.570;2022-08-25T09:31:19;27.40;61.40
72940;DHT22;61094;51.154;13.570;2022-08-25T09:33:47;27.60;62.10
72940;DHT22;61094;51.154;13.570;2022-08-25T09:36:15;27.90;61.70
72940;DHT22;61094;51.154;13.570;2022-08-25T09:38:41;28.20;61.60
72940;DHT22;61094;51.154;13.570;2022-08-25T09:41:08;28.40;60.00
72940;DHT22;61094;51.154;13.570;2022-08-25T09:43:39;28.50;59.70
72940;DHT22;61094;51.154;13.570;2022-08-25T09:46:11;28.70;60.00
72940;DHT22;61094;51.154;13.570;2022-08-25T09:48:44;28.90;59.50
72940;DHT22;61094;51.154;13.570;2022-08-25T09:51:17;29.00;58.10
72940;DHT22;61094;51.154;13.570;2022-08-25T09:53:51;29.10;58.30
72940;DHT22;61094;51.154;13.570;2022-08-25T09:56:20;29.10;58.60
72940;DHT22;61094;51.154;13.570;2022-08-25T09:58:47;29.00;58.60
72940;DHT22;61094;51.154;13.570;2022-08-25T10:01:17;29.00;59.30
72940;DHT22;61094;51.154;13.570;2022-08-25T10:03:55;28.90;59.30
72940;DHT22;61094;51.154;13.570;2022-08-25T10:06:23;28.70;57.80
72940;DHT22;61094;51.154;13.570;2022-08-25T10:08:54;28.60;58.00
72940;DHT22;61094;51.154;13.570;2022-08-25T10:11:38;28.50;58.60
72940;DHT22;61094;51.154;13.570;2022-08-25T10:14:25;28.40;59.00
72940;DHT22;61094;51.154;13.570;2022-08-25T10:17:11;28.30;58.50
72940;DHT22;61094;51.154;13.570;2022-08-25T10:19:39;28.20;57.10
72940;DHT22;61094;51.154;13.570;2022-08-25T10:22:08;28.10;59.00
72940;DHT22;61094;51.154;13.570;2022-08-25T10:24:35;28.00;59.50
72940;DHT22;61094;51.154;13.570;2022-08-25T10:27:11;28.10;58.80
72940;DHT22;61094;51.154;13.570;2022-08-25T10:30:04;28.30;57.50
72940;DHT22;61094;51.154;13.570;2022-08-25T10:35:41;29.00;57.90
72940;DHT22;61094;51.154;13.570;2022-08-25T10:38:15;29.40;55.80
72940;DHT22;61094;51.154;13.570;2022-08-25T10:40:53;29.70;55.70
72940;DHT22;61094;51.154;13.570;2022-08-25T10:43:29;29.90;53.10
72940;DHT22;61094;51.154;13.570;2022-08-25T10:46:04;30.10;52.10
72940;DHT22;61094;51.154;13.570;2022-08-25T10:48:57;30.40;54.30
72940;DHT22;61094;51.154;13.570;2022-08-25T10:51:43;30.70;49.50
72940;DHT22;61094;51.154;13.570;2022-08-25T10:54:19;31.10;49.00
72940;DHT22;61094;51.154;13.570;2022-08-25T10:56:53;31.30;51.10
72940;DHT22;61094;51.154;13.570;2022-08-25T10:59:31;31.50;50.30
72940;DHT22;61094;51.154;13.570;2022-08-25T11:02:54;31.50;47.80
72940;DHT22;61094;51.154;13.570;2022-08-25T11:05:30;31.40;49.10
72940;DHT22;61094;51.154;13.570;2022-08-25T11:08:04;31.30;52.50
72940;DHT22;61094;51.154;13.570;2022-08-25T11:10:38;31.30;49.10
72940;DHT22;61094;51.154;13.570;2022-08-25T11:13:12;31.20;49.40
72940;DHT22;61094;51.154;13.570;2022-08-25T11:15:47;30.90;51.60
72940;DHT22;61094;51.154;13.570;2022-08-25T11:18:15;30.90;51.30
72940;DHT22;61094;51.154;13.570;2022-08-25T11:20:47;30.80;52.50
72940;DHT22;61094;51.154;13.570;2022-08-25T11:23:20;30.60;53.10
72940;DHT22;61094;51.154;13.570;2022-08-25T11:25:51;30.60;53.40
72940;DHT22;61094;51.154;13.570;2022-08-25T11:28:22;30.50;51.50
72940;DHT22;61094;51.154;13.570;2022-08-25T11:30:52;30.50;53.20
72940;DHT22;61094;51.154;13.570;2022-08-25T11:33:23;30.60;52.90
72940;DHT22;61094;51.154;13.570;2022-08-25T11:35:53;30.80;52.10
72940;DHT22;61094;51.154;13.570;2022-08-25T11:38:32;31.10;51.50
72940;DHT22;61094;51.154;13.570;2022-08-25T11:41:10;31.40;50.80
72940;DHT22;61094;51.154;13.570;2022-08-25T11:43:57;31.70;49.10
72940;DHT22;61094;51.154;13.570;2022-08-25T11:46:31;31.90;48.30
72940;DHT22;61094;51.154;13.570;2022-08-25T11:49:12;32.10;47.40
72940;DHT22;61094;51.154;13.570;2022-08-25T11:51:48;32.20;47.50
72940;DHT22;61094;51.154;13.570;2022-08-25T11:54:20;32.40;50.40
72940;DHT22;61094;51.154;13.570;2022-08-25T11:56:55;32.50;48.80
72940;DHT22;61094;51.154;13.570;2022-08-25T12:00:00;32.60;49.30
72940;DHT22;61094;51.154;13.570;2022-08-25T12:02:32;32.70;46.60
72940;DHT22;61094;51.154;13.570;2022-08-25T12:05:01;32.80;46.50
72940;DHT22;61094;51.154;13.570;2022-08-25T12:08:02;33.00;48.40
72940;DHT22;61094;51.154;13.570;2022-08-25T12:10:57;33.10;45.60
72940;DHT22;61094;51.154;13.570;2022-08-25T12:13:40;33.40;47.40
72940;DHT22;61094;51.154;13.570;2022-08-25T12:16:36;33.40;46.60
72940;DHT22;61094;51.154;13.570;2022-08-25T12:19:25;33.40;42.90
72940;DHT22;61094;51.154;13.570;2022-08-25T12:21:53;33.40;42.00
72940;DHT22;61094;51.154;13.570;2022-08-25T12:24:35;33.10;47.70
72940;DHT22;61094;51.154;13.570;2022-08-25T12:27:20;32.90;45.20
72940;DHT22;61094;51.154;13.570;2022-08-25T12:29:50;32.70;45.70
72940;DHT22;61094;51.154;13.570;2022-08-25T12:32:38;32.60;46.20
72940;DHT22;61094;51.154;13.570;2022-08-25T12:35:27;32.50;42.70
72940;DHT22;61094;51.154;13.570;2022-08-25T12:38:00;32.40;43.20
72940;DHT22;61094;51.154;13.570;2022-08-25T12:40:33;32.50;46.90
72940;DHT22;61094;51.154;13.570;2022-08-25T12:43:09;32.50;43.70
72940;DHT22;61094;51.154;13.570;2022-08-25T12:45:42;32.50;44.60
72940;DHT22;61094;51.154;13.570;2022-08-25T12:48:39;32.50;45.50
72940;DHT22;61094;51.154;13.570;2022-08-25T12:51:07;32.50;41.90
72940;DHT22;61094;51.154;13.570;2022-08-25T12:53:38;32.70;46.90
72940;DHT22;61094;51.154;13.570;2022-08-25T12:56:15;32.80;46.10
72940;DHT22;61094;51.154;13.570;2022-08-25T12:58:48;32.90;44.60
72940;DHT22;61094;51.154;13.570;2022-08-25T13:01:23;32.90;46.10
72940;DHT22;61094;51.154;13.570;2022-08-25T13:04:27;32.80;44.10
72940;DHT22;61094;51.154;13.570;2022-08-25T13:07:19;32.60;41.60
72940;DHT22;61094;51.154;13.570;2022-08-25T13:10:10;32.30;41.10
72940;DHT22;61094;51.154;13.570;2022-08-25T13:12:45;32.20;43.20
72940;DHT22;61094;51.154;13.570;2022-08-25T13:15:20;32.20;46.40
72940;DHT22;61094;51.154;13.570;2022-08-25T13:17:50;32.30;46.50
72940;DHT22;61094;51.154;13.570;2022-08-25T13:20:21;32.40;47.10
72940;DHT22;61094;51.154;13.570;2022-08-25T13:22:49;32.40;47.20
72940;DHT22;61094;51.154;13.570;2022-08-25T13:25:18;32.20;47.10
72940;DHT22;61094;51.154;13.570;2022-08-25T13:27:49;32.10;46.80
72940;DHT22;61094;51.154;13.570;2022-08-25T13:30:25;32.00;47.50
72940;DHT22;61094;51.154;13.570;2022-08-25T13:32:52;31.90;44.40
72940;DHT22;61094;51.154;13.570;2022-08-25T13:35:22;31.70;47.60
72940;DHT22;61094;51.154;13.570;2022-08-25T13:37:49;31.70;48.20
72940;DHT22;61094;51.154;13.570;2022-08-25T13:40:21;31.70;48.00
72940;DHT22;61094;51.154;13.570;2022-08-25T13:42:50;31.70;46.90
72940;DHT22;61094;51.154;13.570;2022-08-25T13:45:19;31.80;47.60
72940;DHT22;61094;51.154;13.570;2022-08-25T13:47:47;31.90;45.60
72940;DHT22;61094;51.154;13.570;2022-08-25T13:50:21;31.80;46.70
72940;DHT22;61094;51.154;13.570;2022-08-25T13:52:56;31.80;47.40
72940;DHT22;61094;51.154;13.570;2022-08-25T13:55:24;31.90;47.30
72940;DHT22;61094;51.154;13.570;2022-08-25T13:57:53;32.00;47.20
72940;DHT22;61094;51.154;13.570;2022-08-25T14:00:28;32.00;46.00
72940;DHT22;61094;51.154;13.570;2022-08-25T14:02:56;31.80;46.10
72940;DHT22;61094;51.154;13.570;2022-08-25T14:05:37;31.70;46.40
72940;DHT22;61094;51.154;13.570;2022-08-25T14:08:06;31.50;44.90
72940;DHT22;61094;51.154;13.570;2022-08-25T14:10:34;31.30;47.90
72940;DHT22;61094;51.154;13.570;2022-08-25T14:13:12;31.10;46.10
72940;DHT22;61094;51.154;13.570;2022-08-25T14:15:40;30.90;47.30
72940;DHT22;61094;51.154;13.570;2022-08-25T14:18:11;30.80;48.70
72940;DHT22;61094;51.154;13.570;2022-08-25T14:20:43;30.90;47.20
72940;DHT22;61094;51.154;13.570;2022-08-25T14:23:14;30.90;46.80
72940;DHT22;61094;51.154;13.570;2022-08-25T14:25:41;30.90;47.80
72940;DHT22;61094;51.154;13.570;2022-08-25T14:28:12;30.90;46.60
72940;DHT22;61094;51.154;13.570;2022-08-25T14:30:42;31.00;47.40
72940;DHT22;61094;51.154;13.570;2022-08-25T14:33:10;31.10;47.00
72940;DHT22;61094;51.154;13.570;2022-08-25T14:35:37;31.20;47.10
72940;DHT22;61094;51.154;13.570;2022-08-25T14:38:08;31.40;47.50
72940;DHT22;61094;51.154;13.570;2022-08-25T14:40:35;31.50;47.50
72940;DHT22;61094;51.154;13.570;2022-08-25T14:43:02;31.50;47.50
72940;DHT22;61094;51.154;13.570;2022-08-25T14:45:31;31.60;47.40
72940;DHT22;61094;51.154;13.570;2022-08-25T14:48:02;31.60;46.70
72940;DHT22;61094;51.154;13.570;2022-08-25T14:50:29;31.70;46.70
72940;DHT22;61094;51.154;13.570;2022-08-25T14:52:56;31.70;47.40
72940;DHT22;61094;51.154;13.570;2022-08-25T14:55:23;31.70;47.40
72940;DHT22;61094;51.154;13.570;2022-08-25T14:57:49;31.80;46.90
72940;DHT22;61094;51.154;13.570;2022-08-25T15:00:16;31.80;45.60
72940;DHT22;61094;51.154;13.570;2022-08-25T15:02:46;31.70;47.10
72940;DHT22;61094;51.154;13.570;2022-08-25T15:05:14;31.50;47.20
72940;DHT22;61094;51.154;13.570;2022-08-25T15:07:42;31.30;47.40
72940;DHT22;61094;51.154;13.570;2022-08-25T15:10:26;31.10;47.80
72940;DHT22;61094;51.154;13.570;2022-08-25T15:12:52;30.90;48.30
72940;DHT22;61094;51.154;13.570;2022-08-25T15:15:19;30.80;48.40
72940;DHT22;61094;51.154;13.570;2022-08-25T15:17:47;30.70;48.50
72940;DHT22;61094;51.154;13.570;2022-08-25T15:20:14;30.70;48.80
72940;DHT22;61094;51.154;13.570;2022-08-25T15:22:40;30.70;48.70
72940;DHT22;61094;51.154;13.570;2022-08-25T15:25:08;30.70;48.50
72940;DHT22;61094;51.154;13.570;2022-08-25T15:27:35;30.80;48.20
72940;DHT22;61094;51.154;13.570;2022-08-25T15:30:03;30.80;47.60
72940;DHT22;61094;51.154;13.570;2022-08-25T15:32:30;30.80;48.30
72940;DHT22;61094;51.154;13.570;2022-08-25T15:34:58;30.80;48.30
72940;DHT22;61094;51.154;13.570;2022-08-25T15:37:25;30.70;48.30
72940;DHT22;61094;51.154;13.570;2022-08-25T15:39:52;30.50;48.20
72940;DHT22;61094;51.154;13.570;2022-08-25T15:55:49;30.60;47.60
72940;DHT22;61094;51.154;13.570;2022-08-25T15:58:16;30.60;48.30
72940;DHT22;61094;51.154;13.570;2022-08-25T16:00:43;30.70;48.00